sensor_id;sensor_type;location;lat;lon;timestamp;pressure;altitude;pressure_sealevel;temperature;humidity
16664;BME280;8445;51.270;9.434;2023-04-05T00:01:27;100274.59;;;-0.41;47.54
16664;BME280;8445;51.270;9.434;2023-04-05T00:03:54;100282.44;;;-0.45;47.03
16664;BME280;8445;51.270;9.434;2023-04-05T00:06:22;100289.34;;;-0.43;47.41
16664;BME280;8445;51.270;9.434;2023-04-05T00:08:54;100281.53;;;-0.43;47.62
16664;BME280;8445;51.270;9.434;2023-04-05T00:11:23;100285.13;;;-0.51;47.53
16664;BME280;8445;51.270;9.434;2023-04-05T00:13:48;100280.84;;;-0.55;47.83
16664;BME280;8445;51.270;9.434;2023-04-05T00:16:15;100278.28;;;-0.56;47.71
16664;BME280;8445;51.270;9.434;2023-04-05T00:18:41;100274.06;;;-0.62;48.15
16664;BME280;8445;51.270;9.434;2023-04-05T00:21:17;100271.56;;;-0.70;47.75
16664;BME280;8445;51.270;9.434;2023-04-05T00:23:46;100282.00;;;-0.71;48.44
16664;BME280;8445;51.270;9.434;2023-04-05T00:26:15;100281.06;;;-0.69;48.00
16664;BME280;8445;51.270;9.434;2023-04-05T00:28:47;100276.72;;;-0.65;48.01
16664;BME280;8445;51.270;9.434;2023-04-05T00:31:19;100273.19;;;-0.63;48.69
16664;BME280;8445;51.270;9.434;2023-04-05T00:33:55;100281.03;;;-0.64;48.58
16664;BME280;8445;51.270;9.434;2023-04-05T00:36:22;100280.84;;;-0.55;48.37
16664;BME280;8445;51.270;9.434;2023-04-05T00:39:05;100273.19;;;-0.61;47.97
16664;BME280;8445;51.270;9.434;2023-04-05T00:42:08;100269.78;;;-0.66;49.25
16664;BME280;8445;51.270;9.434;2023-04-05T00:45:21;100275.03;;;-0.69;48.35
16664;BME280;8445;51.270;9.434;2023-04-05T00:48:10;100271.47;;;-0.64;50.16
16664;BME280;8445;51.270;9.434;2023-04-05T00:50:59;100264.50;;;-0.62;48.13
16664;BME280;8445;51.270;9.434;2023-04-05T00:53:47;100260.84;;;-0.48;50.08
16664;BME280;8445;51.270;9.434;2023-04-05T00:56:40;100259.88;;;-0.42;48.22
16664;BME280;8445;51.270;9.434;2023-04-05T01:02:54;100255.22;;;-0.23;49.34
16664;BME280;8445;51.270;9.434;2023-04-05T01:16:18;100256.72;;;-0.08;50.95
16664;BME280;8445;51.270;9.434;2023-04-05T01:19:07;100247.50;;;-0.28;52.43
16664;BME280;8445;51.270;9.434;2023-04-05T01:28:55;100240.69;;;-0.88;51.45
16664;BME280;8445;51.270;9.434;2023-04-05T01:32:38;100238.19;;;-0.96;50.65
16664;BME280;8445;51.270;9.434;2023-04-05T01:35:31;100232.25;;;-1.05;50.89
16664;BME280;8445;51.270;9.434;2023-04-05T01:38:59;100242.91;;;-1.25;50.15
16664;BME280;8445;51.270;9.434;2023-04-05T01:42:12;100243.09;;;-1.39;53.27
16664;BME280;8445;51.270;9.434;2023-04-05T01:45:11;100237.19;;;-1.50;50.29
16664;BME280;8445;51.270;9.434;2023-04-05T01:48:34;100236.44;;;-1.60;50.70
16664;BME280;8445;51.270;9.434;2023-04-05T01:51:22;100233.91;;;-1.68;50.22
16664;BME280;8445;51.270;9.434;2023-04-05T01:58:07;100236.56;;;-1.72;54.43
16664;BME280;8445;51.270;9.434;2023-04-05T02:00:56;100239.28;;;-1.80;54.04
16664;BME280;8445;51.270;9.434;2023-04-05T02:03:34;100244.56;;;-1.89;51.48
16664;BME280;8445;51.270;9.434;2023-04-05T02:09:45;100242.75;;;-1.81;53.13
16664;BME280;8445;51.270;9.434;2023-04-05T02:18:57;100235.75;;;-1.76;51.35
16664;BME280;8445;51.270;9.434;2023-04-05T02:28:31;100240.22;;;-1.89;53.41
16664;BME280;8445;51.270;9.434;2023-04-05T02:31:31;100235.94;;;-1.91;52.25
16664;BME280;8445;51.270;9.434;2023-04-05T02:37:54;100236.75;;;-1.86;50.00
16664;BME280;8445;51.270;9.434;2023-04-05T02:44:15;100232.19;;;-1.69;50.89
16664;BME280;8445;51.270;9.434;2023-04-05T02:55:09;100217.88;;;-2.02;54.77
16664;BME280;8445;51.270;9.434;2023-04-05T02:57:35;100224.09;;;-2.17;51.06
16664;BME280;8445;51.270;9.434;2023-04-05T03:00:13;100225.88;;;-2.22;51.96
16664;BME280;8445;51.270;9.434;2023-04-05T03:03:24;100222.44;;;-2.28;55.38
16664;BME280;8445;51.270;9.434;2023-04-05T03:06:13;100209.56;;;-2.35;51.28
16664;BME280;8445;51.270;9.434;2023-04-05T03:13:09;100209.56;;;-2.32;51.44
16664;BME280;8445;51.270;9.434;2023-04-05T03:16:29;100213.84;;;-2.33;54.82
16664;BME280;8445;51.270;9.434;2023-04-05T03:19:11;100210.47;;;-2.38;52.58
16664;BME280;8445;51.270;9.434;2023-04-05T03:22:43;100211.38;;;-2.42;54.17
16664;BME280;8445;51.270;9.434;2023-04-05T03:25:38;100200.19;;;-2.44;52.57
16664;BME280;8445;51.270;9.434;2023-04-05T03:29:20;100213.94;;;-2.39;54.46
16664;BME280;8445;51.270;9.434;2023-04-05T03:33:02;100217.44;;;-2.43;54.94
16664;BME280;8445;51.270;9.434;2023-04-05T03:40:12;100208.84;;;-2.48;56.20
16664;BME280;8445;51.270;9.434;2023-04-05T03:43:21;100211.41;;;-2.47;55.44
16664;BME280;8445;51.270;9.434;2023-04-05T03:46:09;100216.59;;;-2.45;53.55
16664;BME280;8445;51.270;9.434;2023-04-05T03:48:40;100210.53;;;-2.44;50.74
16664;BME280;8445;51.270;9.434;2023-04-05T03:55:10;100215.50;;;-2.22;54.11
16664;BME280;8445;51.270;9.434;2023-04-05T04:01:55;100211.13;;;-2.16;54.14
16664;BME280;8445;51.270;9.434;2023-04-05T04:04:32;100205.78;;;-2.02;54.33
16664;BME280;8445;51.270;9.434;2023-04-05T04:07:33;100205.63;;;-1.88;54.27
16664;BME280;8445;51.270;9.434;2023-04-05T04:10:22;100213.22;;;-1.72;55.00
16664;BME280;8445;51.270;9.434;2023-04-05T04:13:10;100210.56;;;-1.68;52.40
16664;BME280;8445;51.270;9.434;2023-04-05T04:16:05;100209.59;;;-1.57;54.49
16664;BME280;8445;51.270;9.434;2023-04-05T04:19:21;100202.63;;;-1.54;52.60
16664;BME280;8445;51.270;9.434;2023-04-05T04:26:17;100201.69;;;-1.48;53.91
16664;BME280;8445;51.270;9.434;2023-04-05T04:33:25;100194.00;;;-1.56;52.02
16664;BME280;8445;51.270;9.434;2023-04-05T04:36:14;100194.84;;;-1.55;51.56
16664;BME280;8445;51.270;9.434;2023-04-05T04:39:04;100189.66;;;-1.55;51.34
16664;BME280;8445;51.270;9.434;2023-04-05T04:42:14;100195.69;;;-1.52;51.63
16664;BME280;8445;51.270;9.434;2023-04-05T04:48:56;100187.78;;;-1.44;51.57
16664;BME280;8445;51.270;9.434;2023-04-05T04:55:33;100187.84;;;-1.47;52.21
16664;BME280;8445;51.270;9.434;2023-04-05T04:58:33;100193.84;;;-1.45;54.88
16664;BME280;8445;51.270;9.434;2023-04-05T05:01:34;100199.97;;;-1.47;52.04
16664;BME280;8445;51.270;9.434;2023-04-05T05:08:08;100202.91;;;-1.11;54.65
16664;BME280;8445;51.270;9.434;2023-04-05T05:10:56;100198.38;;;-0.98;54.21
16664;BME280;8445;51.270;9.434;2023-04-05T05:13:22;100206.88;;;-0.87;55.46
16664;BME280;8445;51.270;9.434;2023-04-05T05:16:11;100210.16;;;-0.76;53.11
16664;BME280;8445;51.270;9.434;2023-04-05T05:18:37;100218.66;;;-0.64;53.97
16664;BME280;8445;51.270;9.434;2023-04-05T05:21:05;100211.56;;;-0.56;55.70
16664;BME280;8445;51.270;9.434;2023-04-05T05:23:31;100217.53;;;-0.51;54.43
16664;BME280;8445;51.270;9.434;2023-04-05T05:25:59;100210.53;;;-0.46;55.15
16664;BME280;8445;51.270;9.434;2023-04-05T05:28:27;100213.13;;;-0.46;53.24
16664;BME280;8445;51.270;9.434;2023-04-05T05:30:53;100208.91;;;-0.51;53.25
16664;BME280;8445;51.270;9.434;2023-04-05T05:33:18;100207.25;;;-0.55;52.84
16664;BME280;8445;51.270;9.434;2023-04-05T05:35:47;100202.94;;;-0.58;52.49
16664;BME280;8445;51.270;9.434;2023-04-05T05:38:17;100211.69;;;-0.62;51.92
16664;BME280;8445;51.270;9.434;2023-04-05T05:40:44;100213.47;;;-0.64;51.72
16664;BME280;8445;51.270;9.434;2023-04-05T05:43:17;100212.56;;;-0.63;51.78
16664;BME280;8445;51.270;9.434;2023-04-05T05:45:44;100205.63;;;-0.61;51.88
16664;BME280;8445;51.270;9.434;2023-04-05T05:48:17;100213.31;;;-0.58;51.57
16664;BME280;8445;51.270;9.434;2023-04-05T05:50:48;100211.56;;;-0.54;51.70
16664;BME280;8445;51.270;9.434;2023-04-05T05:53:24;100204.56;;;-0.51;51.50
16664;BME280;8445;51.270;9.434;2023-04-05T05:56:31;100216.47;;;-0.37;52.07
16664;BME280;8445;51.270;9.434;2023-04-05T05:59:08;100212.81;;;-0.27;51.90
16664;BME280;8445;51.270;9.434;2023-04-05T06:02:21;100219.31;;;-0.03;51.60
16664;BME280;8445;51.270;9.434;2023-04-05T06:05:20;100209.38;;;0.18;52.74
16664;BME280;8445;51.270;9.434;2023-04-05T06:08:20;100213.25;;;0.41;52.45
16664;BME280;8445;51.270;9.434;2023-04-05T06:10:53;100208.44;;;0.63;51.79
16664;BME280;8445;51.270;9.434;2023-04-05T06:13:58;100210.38;;;0.94;51.56
16664;BME280;8445;51.270;9.434;2023-04-05T06:16:26;100209.78;;;1.19;51.82
16664;BME280;8445;51.270;9.434;2023-04-05T06:19:22;100202.13;;;1.49;53.29
16664;BME280;8445;51.270;9.434;2023-04-05T06:25:24;100203.75;;;1.88;51.44
16664;BME280;8445;51.270;9.434;2023-04-05T06:31:36;100202.53;;;2.00;52.58
16664;BME280;8445;51.270;9.434;2023-04-05T06:41:26;100192.91;;;2.03;52.25
16664;BME280;8445;51.270;9.434;2023-04-05T06:45:06;100199.63;;;2.11;52.94
16664;BME280;8445;51.270;9.434;2023-04-05T06:48:16;100197.66;;;2.19;53.06
16664;BME280;8445;51.270;9.434;2023-04-05T06:54:35;100194.94;;;2.24;51.42
16664;BME280;8445;51.270;9.434;2023-04-05T06:58:02;100195.13;;;2.17;52.41
16664;BME280;8445;51.270;9.434;2023-04-05T07:00:39;100199.34;;;2.21;51.30
16664;BME280;8445;51.270;9.434;2023-04-05T07:03:34;100205.00;;;2.36;53.04
16664;BME280;8445;51.270;9.434;2023-04-05T07:06:29;100198.69;;;2.45;51.72
16664;BME280;8445;51.270;9.434;2023-04-05T07:09:51;100197.34;;;2.61;51.54
16664;BME280;8445;51.270;9.434;2023-04-05T07:12:19;100187.56;;;2.68;51.41
16664;BME280;8445;51.270;9.434;2023-04-05T07:14:55;100189.97;;;2.74;50.92
16664;BME280;8445;51.270;9.434;2023-04-05T07:17:26;100191.50;;;2.81;51.57
16664;BME280;8445;51.270;9.434;2023-04-05T07:19:55;100183.66;;;2.81;50.82
16664;BME280;8445;51.270;9.434;2023-04-05T07:22:21;100170.69;;;2.78;50.86
16664;BME280;8445;51.270;9.434;2023-04-05T07:24:46;100175.03;;;2.79;50.91
16664;BME280;8445;51.270;9.434;2023-04-05T07:27:13;100169.78;;;2.79;50.72
16664;BME280;8445;51.270;9.434;2023-04-05T07:29:39;100165.38;;;2.81;50.17
16664;BME280;8445;51.270;9.434;2023-04-05T07:32:08;100168.63;;;2.88;50.77
16664;BME280;8445;51.270;9.434;2023-04-05T07:34:34;100172.88;;;2.92;51.01
16664;BME280;8445;51.270;9.434;2023-04-05T07:37:00;100171.00;;;2.96;50.41
16664;BME280;8445;51.270;9.434;2023-04-05T07:39:25;100171.78;;;3.00;50.55
16664;BME280;8445;51.270;9.434;2023-04-05T07:41:51;100169.06;;;3.03;50.53
16664;BME280;8445;51.270;9.434;2023-04-05T07:44:17;100172.19;;;3.14;50.54
16664;BME280;8445;51.270;9.434;2023-04-05T07:46:42;100164.81;;;3.25;50.53
16664;BME280;8445;51.270;9.434;2023-04-05T07:49:11;100167.22;;;3.33;50.22
16664;BME280;8445;51.270;9.434;2023-04-05T07:51:39;100171.25;;;3.42;50.56
16664;BME280;8445;51.270;9.434;2023-04-05T07:54:09;100163.06;;;3.53;50.26
16664;BME280;8445;51.270;9.434;2023-04-05T07:56:36;100169.66;;;3.63;50.03
16664;BME280;8445;51.270;9.434;2023-04-05T07:59:03;100168.75;;;3.64;50.57
16664;BME280;8445;51.270;9.434;2023-04-05T08:01:32;100168.13;;;3.83;50.41
16664;BME280;8445;51.270;9.434;2023-04-05T08:03:57;100170.44;;;3.92;50.13
16664;BME280;8445;51.270;9.434;2023-04-05T08:06:28;100170.94;;;4.02;49.91
16664;BME280;8445;51.270;9.434;2023-04-05T08:09:06;100172.53;;;4.06;49.87
16664;BME280;8445;51.270;9.434;2023-04-05T08:11:36;100170.50;;;4.14;50.12
16664;BME280;8445;51.270;9.434;2023-04-05T08:14:06;100166.78;;;4.20;49.86
16664;BME280;8445;51.270;9.434;2023-04-05T08:16:34;100172.09;;;4.19;49.92
16664;BME280;8445;51.270;9.434;2023-04-05T08:19:00;100171.13;;;4.21;49.68
16664;BME280;8445;51.270;9.434;2023-04-05T08:21:25;100166.34;;;4.33;49.46
16664;BME280;8445;51.270;9.434;2023-04-05T08:23:51;100167.13;;;4.35;49.05
16664;BME280;8445;51.270;9.434;2023-04-05T08:26:17;100153.94;;;4.38;49.37
16664;BME280;8445;51.270;9.434;2023-04-05T08:28:45;100150.41;;;4.39;49.27
16664;BME280;8445;51.270;9.434;2023-04-05T08:31:10;100153.00;;;4.39;49.36
16664;BME280;8445;51.270;9.434;2023-04-05T08:33:36;100159.84;;;4.43;49.29
16664;BME280;8445;51.270;9.434;2023-04-05T08:36:08;100155.22;;;4.50;49.54
16664;BME280;8445;51.270;9.434;2023-04-05T08:38:34;100154.03;;;4.58;49.06
16664;BME280;8445;51.270;9.434;2023-04-05T08:41:20;100146.34;;;4.76;49.14
16664;BME280;8445;51.270;9.434;2023-04-05T08:43:56;100156.41;;;4.87;49.16
16664;BME280;8445;51.270;9.434;2023-04-05T08:46:24;100150.00;;;4.94;48.90
16664;BME280;8445;51.270;9.434;2023-04-05T08:48:51;100148.06;;;4.99;49.17
16664;BME280;8445;51.270;9.434;2023-04-05T08:51:19;100154.38;;;4.94;49.11
16664;BME280;8445;51.270;9.434;2023-04-05T08:53:45;100151.41;;;5.03;49.38
16664;BME280;8445;51.270;9.434;2023-04-05T08:56:14;100153.78;;;5.09;49.37
16664;BME280;8445;51.270;9.434;2023-04-05T08:58:45;100156.94;;;5.17;49.37
16664;BME280;8445;51.270;9.434;2023-04-05T09:01:13;100151.25;;;5.28;49.13
16664;BME280;8445;51.270;9.434;2023-04-05T09:03:40;100150.91;;;5.36;48.97
16664;BME280;8445;51.270;9.434;2023-04-05T09:06:07;100148.56;;;5.51;49.14
16664;BME280;8445;51.270;9.434;2023-04-05T09:08:37;100154.34;;;5.59;49.03
16664;BME280;8445;51.270;9.434;2023-04-05T09:11:03;100145.81;;;5.74;49.02
16664;BME280;8445;51.270;9.434;2023-04-05T09:13:30;100148.66;;;5.89;49.00
16664;BME280;8445;51.270;9.434;2023-04-05T09:15:56;100146.25;;;6.05;49.00
16664;BME280;8445;51.270;9.434;2023-04-05T09:18:22;100152.44;;;6.23;48.66
16664;BME280;8445;51.270;9.434;2023-04-05T09:20:47;100147.16;;;6.44;48.61
16664;BME280;8445;51.270;9.434;2023-04-05T09:23:13;100144.91;;;6.73;49.05
16664;BME280;8445;51.270;9.434;2023-04-05T09:25:40;100140.63;;;6.89;48.91
16664;BME280;8445;51.270;9.434;2023-04-05T09:28:09;100140.25;;;7.15;48.65
16664;BME280;8445;51.270;9.434;2023-04-05T09:30:36;100143.91;;;7.47;49.31
16664;BME280;8445;51.270;9.434;2023-04-05T09:33:06;100141.53;;;7.76;48.77
16664;BME280;8445;51.270;9.434;2023-04-05T09:35:34;100134.13;;;8.00;49.18
16664;BME280;8445;51.270;9.434;2023-04-05T09:38:01;100129.59;;;8.20;48.59
16664;BME280;8445;51.270;9.434;2023-04-05T09:40:48;100132.84;;;8.41;48.12
16664;BME280;8445;51.270;9.434;2023-04-05T09:43:38;100136.88;;;8.49;47.06
16664;BME280;8445;51.270;9.434;2023-04-05T09:46:04;100137.47;;;8.54;48.34
16664;BME280;8445;51.270;9.434;2023-04-05T09:48:46;100134.72;;;8.55;46.88
16664;BME280;8445;51.270;9.434;2023-04-05T09:51:16;100134.22;;;8.65;47.33
16664;BME280;8445;51.270;9.434;2023-04-05T09:54:03;100130.84;;;8.79;45.56
16664;BME280;8445;51.270;9.434;2023-04-05T09:56:34;100120.78;;;8.85;47.96
16664;BME280;8445;51.270;9.434;2023-04-05T09:59:01;100127.88;;;8.99;48.32
16664;BME280;8445;51.270;9.434;2023-04-05T10:01:31;100116.97;;;9.05;46.13
16664;BME280;8445;51.270;9.434;2023-04-05T10:03:58;100119.84;;;9.17;47.53
16664;BME280;8445;51.270;9.434;2023-04-05T10:06:42;100122.09;;;9.09;42.39
16664;BME280;8445;51.270;9.434;2023-04-05T10:09:09;100115.91;;;9.24;47.58
16664;BME280;8445;51.270;9.434;2023-04-05T10:11:36;100114.63;;;9.31;47.32
16664;BME280;8445;51.270;9.434;2023-04-05T10:14:04;100108.03;;;9.39;47.54
16664;BME280;8445;51.270;9.434;2023-04-05T10:16:32;100110.69;;;9.53;47.58
16664;BME280;8445;51.270;9.434;2023-04-05T10:19:00;100109.94;;;9.66;47.95
16664;BME280;8445;51.270;9.434;2023-04-05T10:21:34;100112.03;;;9.60;43.44
16664;BME280;8445;51.270;9.434;2023-04-05T10:24:26;100109.75;;;9.54;46.55
16664;BME280;8445;51.270;9.434;2023-04-05T10:29:37;100101.06;;;9.38;46.91
16664;BME280;8445;51.270;9.434;2023-04-05T10:32:12;100100.63;;;9.15;46.48
16664;BME280;8445;51.270;9.434;2023-04-05T10:34:56;100097.25;;;8.97;43.81
16664;BME280;8445;51.270;9.434;2023-04-05T10:37:40;100097.47;;;8.78;44.29
16664;BME280;8445;51.270;9.434;2023-04-05T10:40:07;100089.16;;;8.69;47.33
16664;BME280;8445;51.270;9.434;2023-04-05T10:42:41;100089.31;;;8.66;43.79
16664;BME280;8445;51.270;9.434;2023-04-05T10:45:11;100087.88;;;8.77;46.69
16664;BME280;8445;51.270;9.434;2023-04-05T10:47:43;100095.59;;;8.80;46.11
16664;BME280;8445;51.270;9.434;2023-04-05T10:50:13;100089.00;;;8.87;45.63
16664;BME280;8445;51.270;9.434;2023-04-05T10:52:42;100079.78;;;8.80;46.35
16664;BME280;8445;51.270;9.434;2023-04-05T10:55:09;100071.94;;;8.78;46.30
16664;BME280;8445;51.270;9.434;2023-04-05T10:57:35;100079.16;;;8.90;46.53
16664;BME280;8445;51.270;9.434;2023-04-05T11:00:02;100077.16;;;8.94;46.58
16664;BME280;8445;51.270;9.434;2023-04-05T11:02:28;100077.69;;;9.01;45.94
16664;BME280;8445;51.270;9.434;2023-04-05T11:04:54;100069.06;;;8.97;45.94
16664;BME280;8445;51.270;9.434;2023-04-05T11:07:20;100064.56;;;8.99;46.27
16664;BME280;8445;51.270;9.434;2023-04-05T11:10:00;100063.84;;;9.12;40.91
16664;BME280;8445;51.270;9.434;2023-04-05T11:18:09;100056.56;;;9.60;45.78
16664;BME280;8445;51.270;9.434;2023-04-05T11:20:52;100054.22;;;9.70;41.39
16664;BME280;8445;51.270;9.434;2023-04-05T11:23:22;100045.72;;;9.65;45.67
16664;BME280;8445;51.270;9.434;2023-04-05T11:25:53;100043.34;;;9.60;45.12
16664;BME280;8445;51.270;9.434;2023-04-05T11:28:36;100043.34;;;9.31;41.39
16664;BME280;8445;51.270;9.434;2023-04-05T11:31:14;100041.03;;;9.11;41.98
16664;BME280;8445;51.270;9.434;2023-04-05T11:36:09;100035.69;;;8.82;44.77
16664;BME280;8445;51.270;9.434;2023-04-05T11:38:36;100032.34;;;8.78;44.91
16664;BME280;8445;51.270;9.434;2023-04-05T11:41:20;100037.34;;;8.68;42.55
16664;BME280;8445;51.270;9.434;2023-04-05T11:43:46;100028.06;;;8.61;44.45
16664;BME280;8445;51.270;9.434;2023-04-05T11:46:14;100025.94;;;8.52;43.20
16664;BME280;8445;51.270;9.434;2023-04-05T11:48:40;100020.16;;;8.61;44.88
16664;BME280;8445;51.270;9.434;2023-04-05T11:51:09;100029.00;;;8.60;44.45
16664;BME280;8445;51.270;9.434;2023-04-05T11:53:36;100022.47;;;8.51;44.10
16664;BME280;8445;51.270;9.434;2023-04-05T11:56:09;100022.47;;;8.51;42.88
16664;BME280;8445;51.270;9.434;2023-04-05T11:58:37;100016.00;;;8.57;44.37
16664;BME280;8445;51.270;9.434;2023-04-05T12:01:04;100016.41;;;8.65;44.41
16664;BME280;8445;51.270;9.434;2023-04-05T12:03:31;100023.03;;;8.87;44.22
16664;BME280;8445;51.270;9.434;2023-04-05T12:06:03;100011.13;;;8.96;43.59
16664;BME280;8445;51.270;9.434;2023-04-05T12:08:40;100012.13;;;8.93;43.38
16664;BME280;8445;51.270;9.434;2023-04-05T12:11:10;100006.50;;;8.99;44.30
16664;BME280;8445;51.270;9.434;2023-04-05T12:13:37;100006.78;;;8.95;44.00
16664;BME280;8445;51.270;9.434;2023-04-05T12:16:04;100005.44;;;8.87;44.07
16664;BME280;8445;51.270;9.434;2023-04-05T12:18:35;100001.09;;;8.86;43.79
16664;BME280;8445;51.270;9.434;2023-04-05T12:21:20;99997.81;;;8.97;43.60
16664;BME280;8445;51.270;9.434;2023-04-05T12:23:46;99990.88;;;9.11;44.76
16664;BME280;8445;51.270;9.434;2023-04-05T12:26:15;99997.97;;;9.25;44.36
16664;BME280;8445;51.270;9.434;2023-04-05T12:28:54;99992.41;;;9.29;40.11
16664;BME280;8445;51.270;9.434;2023-04-05T12:34:07;99996.91;;;9.13;44.01
16664;BME280;8445;51.270;9.434;2023-04-05T12:36:34;99995.22;;;9.12;43.63
16664;BME280;8445;51.270;9.434;2023-04-05T12:39:00;99985.56;;;8.96;43.67
16664;BME280;8445;51.270;9.434;2023-04-05T12:41:29;99984.41;;;8.86;43.80
16664;BME280;8445;51.270;9.434;2023-04-05T12:43:56;99988.19;;;8.82;43.82
16664;BME280;8445;51.270;9.434;2023-04-05T12:46:43;99987.44;;;8.80;41.44
16664;BME280;8445;51.270;9.434;2023-04-05T12:49:18;99977.84;;;8.93;43.69
16664;BME280;8445;51.270;9.434;2023-04-05T12:51:45;99988.06;;;9.14;44.11
16664;BME280;8445;51.270;9.434;2023-04-05T12:54:21;99977.69;;;9.25;43.82
16664;BME280;8445;51.270;9.434;2023-04-05T12:56:54;99979.59;;;9.23;40.99
16664;BME280;8445;51.270;9.434;2023-04-05T12:59:21;99972.97;;;9.16;43.49
16664;BME280;8445;51.270;9.434;2023-04-05T13:01:46;99971.94;;;9.04;43.46
16664;BME280;8445;51.270;9.434;2023-04-05T13:04:12;99969.75;;;8.96;43.90
16664;BME280;8445;51.270;9.434;2023-04-05T13:06:38;99965.19;;;8.84;43.49
16664;BME280;8445;51.270;9.434;2023-04-05T13:09:04;99967.19;;;8.80;43.99
16664;BME280;8445;51.270;9.434;2023-04-05T13:11:30;99955.03;;;8.78;43.01
16664;BME280;8445;51.270;9.434;2023-04-05T13:13:56;99957.91;;;8.73;43.47
16664;BME280;8445;51.270;9.434;2023-04-05T13:16:21;99955.38;;;8.71;43.40
16664;BME280;8445;51.270;9.434;2023-04-05T13:18:47;99964.34;;;8.83;43.56
16664;BME280;8445;51.270;9.434;2023-04-05T13:21:12;99957.50;;;8.95;43.81
16664;BME280;8445;51.270;9.434;2023-04-05T13:23:39;99953.16;;;9.09;43.28
16664;BME280;8445;51.270;9.434;2023-04-05T13:26:06;99943.47;;;9.24;43.13
16664;BME280;8445;51.270;9.434;2023-04-05T13:28:31;99942.63;;;9.38;42.81
16664;BME280;8445;51.270;9.434;2023-04-05T13:30:58;99933.16;;;9.48;42.64
16664;BME280;8445;51.270;9.434;2023-04-05T13:33:25;99928.56;;;9.52;43.14
16664;BME280;8445;51.270;9.434;2023-04-05T13:35:52;99925.81;;;9.53;42.99
16664;BME280;8445;51.270;9.434;2023-04-05T13:38:18;99922.22;;;9.54;42.92
16664;BME280;8445;51.270;9.434;2023-04-05T13:40:43;99920.88;;;9.61;42.90
16664;BME280;8445;51.270;9.434;2023-04-05T13:43:09;99922.19;;;9.69;42.54
16664;BME280;8445;51.270;9.434;2023-04-05T13:45:34;99928.88;;;9.74;42.24
16664;BME280;8445;51.270;9.434;2023-04-05T13:48:01;99917.47;;;9.74;42.25
16664;BME280;8445;51.270;9.434;2023-04-05T13:50:27;99912.94;;;9.76;42.68
16664;BME280;8445;51.270;9.434;2023-04-05T13:52:53;99913.88;;;9.75;42.02
16664;BME280;8445;51.270;9.434;2023-04-05T13:55:19;99908.59;;;9.75;42.01
16664;BME280;8445;51.270;9.434;2023-04-05T13:57:44;99901.22;;;9.80;42.08
16664;BME280;8445;51.270;9.434;2023-04-05T14:00:10;99898.47;;;9.82;42.01
16664;BME280;8445;51.270;9.434;2023-04-05T14:02:40;99889.91;;;9.78;42.24
16664;BME280;8445;51.270;9.434;2023-04-05T14:05:07;99894.25;;;9.79;41.85
16664;BME280;8445;51.270;9.434;2023-04-05T14:07:33;99883.97;;;9.74;41.86
16664;BME280;8445;51.270;9.434;2023-04-05T14:09:59;99883.22;;;9.72;41.67
16664;BME280;8445;51.270;9.434;2023-04-05T14:12:24;99873.50;;;9.73;42.40
16664;BME280;8445;51.270;9.434;2023-04-05T14:14:50;99877.28;;;9.69;41.49
16664;BME280;8445;51.270;9.434;2023-04-05T14:17:16;99884.84;;;9.60;41.46
16664;BME280;8445;51.270;9.434;2023-04-05T14:19:41;99881.97;;;9.51;41.13
16664;BME280;8445;51.270;9.434;2023-04-05T14:22:07;99874.88;;;9.51;41.65
16664;BME280;8445;51.270;9.434;2023-04-05T14:24:33;99881.84;;;9.52;41.50
16664;BME280;8445;51.270;9.434;2023-04-05T14:26:59;99879.13;;;9.54;41.36
16664;BME280;8445;51.270;9.434;2023-04-05T14:29:27;99875.34;;;9.58;41.65
16664;BME280;8445;51.270;9.434;2023-04-05T14:31:56;99863.34;;;9.67;41.63
16664;BME280;8445;51.270;9.434;2023-04-05T14:34:23;99861.25;;;9.72;41.42
16664;BME280;8445;51.270;9.434;2023-04-05T14:36:49;99874.81;;;9.80;41.13
16664;BME280;8445;51.270;9.434;2023-04-05T14:39:18;99864.03;;;9.83;41.39
16664;BME280;8445;51.270;9.434;2023-04-05T14:41:47;99865.63;;;9.86;41.10
16664;BME280;8445;51.270;9.434;2023-04-05T14:44:19;99868.81;;;9.91;41.67
16664;BME280;8445;51.270;9.434;2023-04-05T14:46:49;99865.47;;;10.02;41.65
16664;BME280;8445;51.270;9.434;2023-04-05T14:49:19;99869.41;;;10.09;40.98
16664;BME280;8445;51.270;9.434;2023-04-05T14:51:48;99864.09;;;10.09;41.04
16664;BME280;8445;51.270;9.434;2023-04-05T14:54:16;99861.59;;;10.07;41.21
16664;BME280;8445;51.270;9.434;2023-04-05T14:56:46;99857.25;;;10.06;40.82
16664;BME280;8445;51.270;9.434;2023-04-05T14:59:14;99848.88;;;10.00;40.54
16664;BME280;8445;51.270;9.434;2023-04-05T15:01:44;99855.38;;;9.81;40.14
16664;BME280;8445;51.270;9.434;2023-04-05T15:04:14;99849.50;;;9.90;41.24
16664;BME280;8445;51.270;9.434;2023-04-05T15:06:43;99840.63;;;9.91;40.81
16664;BME280;8445;51.270;9.434;2023-04-05T15:09:16;99853.06;;;9.89;39.25
16664;BME280;8445;51.270;9.434;2023-04-05T15:11:45;99845.91;;;9.91;40.74
16664;BME280;8445;51.270;9.434;2023-04-05T15:14:15;99848.34;;;9.94;40.39
16664;BME280;8445;51.270;9.434;2023-04-05T15:16:44;99841.75;;;9.87;40.55
16664;BME280;8445;51.270;9.434;2023-04-05T15:19:14;99843.53;;;9.87;40.75
16664;BME280;8445;51.270;9.434;2023-04-05T15:21:43;99837.63;;;9.83;40.56
16664;BME280;8445;51.270;9.434;2023-04-05T15:24:13;99840.06;;;9.86;40.96
16664;BME280;8445;51.270;9.434;2023-04-05T15:26:43;99835.22;;;9.93;40.72
16664;BME280;8445;51.270;9.434;2023-04-05T15:29:16;99837.22;;;9.89;40.46
16664;BME280;8445;51.270;9.434;2023-04-05T15:31:45;99834.88;;;9.85;40.91
16664;BME280;8445;51.270;9.434;2023-04-05T15:34:15;99833.09;;;9.85;41.14
16664;BME280;8445;51.270;9.434;2023-04-05T15:36:44;99827.28;;;9.93;41.00
16664;BME280;8445;51.270;9.434;2023-04-05T15:39:13;99833.31;;;9.95;40.89
16664;BME280;8445;51.270;9.434;2023-04-05T15:41:41;99831.47;;;9.83;40.67
16664;BME280;8445;51.270;9.434;2023-04-05T15:44:09;99824.25;;;9.72;40.98
16664;BME280;8445;51.270;9.434;2023-04-05T15:46:39;99828.06;;;9.68;40.98
16664;BME280;8445;51.270;9.434;2023-04-05T15:49:09;99823.16;;;9.61;40.52
16664;BME280;8445;51.270;9.434;2023-04-05T15:51:38;99824.50;;;9.54;40.42
16664;BME280;8445;51.270;9.434;2023-04-05T15:54:07;99822.91;;;9.52;40.80
16664;BME280;8445;51.270;9.434;2023-04-05T15:56:36;99825.44;;;9.53;40.46
16664;BME280;8445;51.270;9.434;2023-04-05T15:59:05;99821.97;;;9.53;40.76
16664;BME280;8445;51.270;9.434;2023-04-05T16:01:36;99825.38;;;9.55;40.58